M I D A S
Marine Information and Data Acquisition System
Tripno 1538 of the Zeeleeuw from 2008-08-18 07:18:26 to 2008-08-18 15:57:06
Back to CruiseResearch ActivitiesStationsMapUnderway DataData graphs

EquipmentUnitsComments
TimeDGPSUTC
LatitudeDGPSDM.mWGS84
LongitudeDGPSDM.mWGS84
SpeedMeteo Stationm/sRelative wind speed
DirectionMeteo StationdegRelative wind direction
TemperatureMeteo Stationdeg CelciusAir temperature
PressureMeteo StationPaAtmospheric pressure
HumidityMeteo Station%Relative humidity
Missing or incorrect values are displayed as -999
Metereological data collected by the RV Zeeleeuw from 2008-08-18 07:16:45 to 2008-08-18 15:57:41
Time Latitude Longitude Speed Direction Temperature Pressure Humidity
2008-08-18 07:17 51°13.641 2°55.993 -999 -999 -999 -999 -999
2008-08-18 07:18 51°13.664 2°55.896 -999 -999 -999 -999 -999
2008-08-18 07:19 51°13.707 2°55.796 2.7 11 16.3 -999 79
2008-08-18 07:20 51°13.768 2°55.701 1.1 -999 16.2 100650 80
2008-08-18 07:21 51°13.839 2°55.634 2.9 320 16.2 100650 80
2008-08-18 07:22 51°13.908 2°55.646 5.5 32 16.2 100650 80
2008-08-18 07:23 51°13.93 2°55.642 5.9 253 16.2 100650 80
2008-08-18 07:24 51°13.991 2°55.54 1.9 251 16.3 100640 79
2008-08-18 07:25 51°14.103 2°55.427 1.7 320 16.3 100650 79
2008-08-18 07:26 51°14.219 2°55.308 2.3 237 16.3 100650 79
2008-08-18 07:27 51°14.317 2°55.146 6.2 248 16.3 100650 79
2008-08-18 07:28 51°14.386 2°54.955 4.7 239 16.3 100650 79
2008-08-18 07:29 51°14.376 2°54.686 10.3 35 16.3 100630 79
2008-08-18 07:30 51°14.316 2°54.405 9.7 36 16.4 100610 79
2008-08-18 07:31 51°14.246 2°54.121 13.4 315 16.3 100610 79
2008-08-18 07:32 51°14.168 2°53.84 10.7 37 16.4 100620 79
2008-08-18 07:33 51°14.084 2°53.559 10.6 37 16.3 100600 79
2008-08-18 07:34 51°14.003 2°53.274 12.8 36 16.3 100620 80
2008-08-18 07:35 51°13.92 2°52.988 11.8 315 16.3 100610 80
2008-08-18 07:36 51°13.835 2°52.702 11.1 35 16.3 100610 80
2008-08-18 07:37 51°13.749 2°52.416 10.6 38 16.3 100600 80
2008-08-18 07:38 51°13.663 2°52.13 13.1 34 16.4 100620 81
2008-08-18 07:39 51°13.583 2°51.852 12.8 36 16.3 100610 81
2008-08-18 07:40 51°13.522 2°51.657 10.3 33 16.3 100610 81
2008-08-18 07:41 51°13.482 2°51.548 10.2 34 16.3 100610 81
2008-08-18 07:42 51°13.455 2°51.473 9 35 16.3 100620 81
2008-08-18 07:43 51°13.447 2°51.433 8.5 239 16.3 100630 81
2008-08-18 07:44 51°13.446 2°51.418 9 259 16.3 100620 82
2008-08-18 07:45 51°13.442 2°51.401 5.8 262 16.3 100630 82
2008-08-18 07:46 51°13.437 2°51.382 6.6 263 16.3 100640 82
2008-08-18 07:47 51°13.433 2°51.363 7.1 270 16.3 100640 83
2008-08-18 07:48 51°13.427 2°51.342 6.9 267 16.3 100640 82
2008-08-18 07:49 51°13.421 2°51.321 8 40 16.3 100640 83
2008-08-18 07:50 51°13.416 2°51.3 7.7 266 16.1 100630 82
2008-08-18 07:51 51°13.413 2°51.276 9 266 16.3 100640 84
2008-08-18 07:52 51°13.407 2°51.197 9.5 233 16.2 100640 83
2008-08-18 07:53 51°13.345 2°51.05 12.5 32 16.2 100630 83
2008-08-18 07:54 51°13.247 2°50.815 11.7 315 16.1 100630 85
2008-08-18 07:55 51°13.13 2°50.527 15.7 315 16 100610 86
2008-08-18 07:56 51°13.009 2°50.234 14.9 317 15.8 100610 86
2008-08-18 07:57 51°12.887 2°49.939 16.5 319 15.8 100610 87
2008-08-18 07:58 51°12.77 2°49.649 14.9 316 15.8 100620 88
2008-08-18 07:59 51°12.655 2°49.344 14.6 23 15.7 100610 89
2008-08-18 08:00 51°12.551 2°49.034 15 34 15.6 100610 89
2008-08-18 08:01 51°12.449 2°48.723 11.9 37 15.6 100610 89
2008-08-18 08:02 51°12.354 2°48.406 11.9 26 15.6 100610 90
2008-08-18 08:03 51°12.269 2°48.08 14.6 37 15.6 100600 90
2008-08-18 08:04 51°12.181 2°47.758 12.7 27 15.6 100600 90
2008-08-18 08:05 51°12.092 2°47.435 11.6 34 15.5 100610 90
2008-08-18 08:06 51°12.002 2°47.114 14.6 37 15.5 100610 91
2008-08-18 08:07 51°11.917 2°46.792 11.4 35 15.5 100600 91
2008-08-18 08:08 51°11.868 2°46.449 12.3 35 15.4 100610 92
2008-08-18 08:09 51°11.819 2°46.106 14.7 26 15.4 100610 92
2008-08-18 08:10 51°11.769 2°45.761 14.3 31 15.5 100620 93
2008-08-18 08:11 51°11.732 2°45.413 10.5 236 15.4 100620 93
2008-08-18 08:12 51°11.707 2°45.066 11.6 32 15.4 100610 93
2008-08-18 08:13 51°11.683 2°44.722 10.7 236 15.4 100620 94
2008-08-18 08:14 51°11.662 2°44.382 11.8 238 15.4 100620 94
2008-08-18 08:15 51°11.64 2°44.044 11.7 236 15.3 100610 94
2008-08-18 08:16 51°11.608 2°43.71 13.5 236 15.4 100610 95
2008-08-18 08:17 51°11.568 2°43.377 13.4 29 15.3 100610 95
2008-08-18 08:18 51°11.521 2°43.046 11.3 34 15.3 100610 95
2008-08-18 08:19 51°11.469 2°42.715 14.2 33 15.3 100610 95
2008-08-18 08:20 51°11.381 2°42.458 11.2 318 15.4 100610 96
2008-08-18 08:21 51°11.283 2°42.324 11.7 316 15.4 100620 95
2008-08-18 08:22 51°11.202 2°42.212 10.9 318 15.3 100620 95
2008-08-18 08:23 51°11.128 2°42.129 11.2 320 15.4 100640 96
2008-08-18 08:24 51°11.098 2°42.09 8.5 332 15.3 100650 95
2008-08-18 08:25 51°11.109 2°42.063 6.4 336 15.3 100650 95
2008-08-18 08:26 51°11.119 2°42.038 7 345 15.3 100640 96
2008-08-18 08:27 51°11.131 2°42.009 8.4 352 15.3 100650 96
2008-08-18 08:28 51°11.138 2°41.981 8.5 5 15.2 100650 95
2008-08-18 08:29 51°11.068 2°42.02 11.3 339 15.3 100630 96
2008-08-18 08:30 51°10.926 2°42.092 13.8 339 15.4 100620 96
2008-08-18 08:31 51°10.78 2°42.188 12.9 345 15.4 100610 96
2008-08-18 08:32 51°10.638 2°42.299 12.9 344 15.4 100610 96
2008-08-18 08:33 51°10.497 2°42.412 13.2 344 15.4 100630 96
2008-08-18 08:34 51°10.383 2°42.504 10.4 342 15.3 100640 96
2008-08-18 08:35 51°10.318 2°42.54 9.8 350 15.3 100640 96
2008-08-18 08:36 51°10.281 2°42.59 8 357 15.2 100650 96
2008-08-18 08:37 51°10.238 2°42.667 7.6 356 15.2 100640 96
2008-08-18 08:38 51°10.189 2°42.756 9 351 15.3 100650 97
2008-08-18 08:39 51°10.151 2°42.807 6.8 346 15.2 100650 96
2008-08-18 08:40 51°10.138 2°42.804 5.5 354 15.2 100650 96
2008-08-18 08:41 51°10.133 2°42.796 7.8 359 15.2 100650 97
2008-08-18 08:42 51°10.131 2°42.786 5.1 5 15.2 100650 97
2008-08-18 08:43 51°10.129 2°42.774 7.4 5 15.2 100640 97
2008-08-18 08:44 51°10.128 2°42.76 6.1 18 15.2 100640 97
2008-08-18 08:45 51°10.13 2°42.761 6.5 27 15.2 100640 97
2008-08-18 08:46 51°10.192 2°42.751 5.4 265 15.2 100650 97
2008-08-18 08:47 51°10.202 2°42.549 7.8 23 15.3 100640 98
2008-08-18 08:48 51°10.203 2°42.237 8.5 240 15.2 100630 97
2008-08-18 08:49 51°10.211 2°41.907 8.4 20 15.3 100630 98
2008-08-18 08:50 51°10.229 2°41.571 8.1 236 15.3 100630 98
2008-08-18 08:51 51°10.244 2°41.232 11.7 26 15.3 100630 98
2008-08-18 08:52 51°10.251 2°40.892 10.2 24 15.3 100620 98
2008-08-18 08:53 51°10.259 2°40.55 8.9 235 15.3 100620 98
2008-08-18 08:54 51°10.269 2°40.208 10.1 21 15.3 100610 98
2008-08-18 08:55 51°10.279 2°39.864 12.5 242 15.3 100610 98
2008-08-18 08:56 51°10.291 2°39.52 11 33 15.3 100620 98
2008-08-18 08:57 51°10.301 2°39.176 9.5 237 15.3 100610 98
2008-08-18 08:58 51°10.311 2°38.831 9 238 15.3 100610 98
2008-08-18 08:59 51°10.32 2°38.485 11.4 19 15.3 100610 99
2008-08-18 09:00 51°10.329 2°38.137 11.3 238 15.4 100610 99
2008-08-18 09:01 51°10.346 2°37.786 11.9 239 15.4 100620 99
2008-08-18 09:02 51°10.362 2°37.44 10.7 237 15.4 100610 99
2008-08-18 09:03 51°10.383 2°37.101 9.5 240 15.4 100610 99
2008-08-18 09:04 51°10.466 2°36.807 7.2 259 15.4 100630 99
2008-08-18 09:05 51°10.621 2°36.645 2.6 40 15.4 100640 99
2008-08-18 09:06 51°10.8 2°36.661 3.1 31 15.5 100630 99
2008-08-18 09:07 51°10.98 2°36.707 2.2 37 15.5 100630 99
2008-08-18 09:08 51°11.16 2°36.745 2.3 29 15.6 100630 99
2008-08-18 09:09 51°11.342 2°36.777 1.8 17 15.6 100620 99
2008-08-18 09:10 51°11.525 2°36.799 1.9 41 15.6 100630 99
2008-08-18 09:11 51°11.708 2°36.831 1.6 43 15.6 100620 99
2008-08-18 09:12 51°11.892 2°36.86 1.9 28 15.6 100630 99
2008-08-18 09:13 51°12.076 2°36.871 2 36 15.6 100630 99
2008-08-18 09:14 51°12.259 2°36.89 2.8 42 15.7 100620 99
2008-08-18 09:15 51°12.442 2°36.91 2.9 42 15.5 100620 99
2008-08-18 09:16 51°12.626 2°36.936 2.6 39 15.4 100620 99
2008-08-18 09:17 51°12.808 2°36.976 2.4 32 15.4 100620 99
2008-08-18 09:18 51°12.99 2°37.008 2.3 42 15.5 100620 99
2008-08-18 09:19 51°13.175 2°37.03 3.8 35 15.4 100620 99
2008-08-18 09:20 51°13.359 2°37.057 2 39 15.4 100620 99
2008-08-18 09:21 51°13.542 2°36.973 3.1 33 15.5 100620 99
2008-08-18 09:22 51°13.73 2°36.873 2.2 41 15.6 100610 99
2008-08-18 09:23 51°13.921 2°36.833 2.7 42 15.6 100610 100
2008-08-18 09:24 51°14.112 2°36.797 1.8 26 15.6 100610 99
2008-08-18 09:25 51°14.3 2°36.766 1.8 27 15.5 100610 99
2008-08-18 09:26 51°14.487 2°36.743 3.8 21 15.5 100610 100
2008-08-18 09:27 51°14.676 2°36.727 3.8 44 15.5 100610 99
2008-08-18 09:28 51°14.867 2°36.714 3.4 38 15.4 100600 99
2008-08-18 09:29 51°15.058 2°36.711 3.7 32 15.4 100600 100
2008-08-18 09:30 51°15.248 2°36.711 3.6 27 15.5 100600 100
2008-08-18 09:31 51°15.437 2°36.733 2.2 34 15.4 100600 100
2008-08-18 09:32 51°15.628 2°36.74 3 33 15.5 100600 100
2008-08-18 09:33 51°15.82 2°36.747 3 45 15.5 100590 100
2008-08-18 09:34 51°16.01 2°36.754 2.9 41 15.5 100590 100
2008-08-18 09:35 51°16.195 2°36.77 4.6 40 15.6 100590 100
2008-08-18 09:36 51°16.379 2°36.782 3.8 41 15.5 100590 100
2008-08-18 09:37 51°16.524 2°36.803 7.5 41 15.5 100590 100
2008-08-18 09:38 51°16.584 2°36.817 9 34 15.5 100570 100
2008-08-18 09:39 51°16.597 2°36.809 8.1 38 15.5 100560 100
2008-08-18 09:40 51°16.604 2°36.797 9.3 34 15.6 100560 100
2008-08-18 09:41 51°16.604 2°36.783 11.9 30 15.7 100560 100
2008-08-18 09:42 51°16.599 2°36.765 11 27 15.6 100560 100
2008-08-18 09:43 51°16.592 2°36.743 10 18 15.6 100560 100
2008-08-18 09:44 51°16.585 2°36.717 11.1 19 15.6 100550 100
2008-08-18 09:45 51°16.579 2°36.692 10.7 12 15.8 100550 100
2008-08-18 09:46 51°16.572 2°36.669 10 11 15.7 100550 100
2008-08-18 09:47 51°16.588 2°36.689 9.5 38 15.8 100560 100
2008-08-18 09:48 51°16.649 2°36.604 4.5 266 15.8 100590 100
2008-08-18 09:49 51°16.753 2°36.397 4.9 264 15.8 100580 100
2008-08-18 09:50 51°16.894 2°36.195 5.5 268 15.8 100580 100
2008-08-18 09:51 51°17.045 2°35.994 5.5 26 15.8 100580 100
2008-08-18 09:52 51°17.197 2°35.794 3.8 265 15.8 100580 100
2008-08-18 09:53 51°17.348 2°35.595 3.4 261 15.8 100570 100
2008-08-18 09:54 51°17.493 2°35.379 5.4 268 15.9 100570 100
2008-08-18 09:55 51°17.633 2°35.147 4.8 263 15.8 100570 100
2008-08-18 09:56 51°17.768 2°34.904 6.6 261 15.8 100570 100
2008-08-18 09:57 51°17.903 2°34.656 5.6 263 15.8 100570 100
2008-08-18 09:58 51°18.029 2°34.392 7.6 261 15.9 100580 100
2008-08-18 09:59 51°18.156 2°34.132 5.7 264 15.9 100570 100
2008-08-18 10:00 51°18.284 2°33.871 8.5 259 15.9 100570 100
2008-08-18 10:01 51°18.408 2°33.602 8 260 15.9 100570 100
2008-08-18 10:02 51°18.529 2°33.344 8.8 260 15.9 100570 100
2008-08-18 10:03 51°18.652 2°33.084 7.8 258 16 100570 100
2008-08-18 10:04 51°18.766 2°32.826 6.7 303 16 100570 100
2008-08-18 10:05 51°18.879 2°32.553 5.8 302 16 100550 100
2008-08-18 10:06 51°18.993 2°32.283 5.9 307 16 100570 100
2008-08-18 10:07 51°19.112 2°32.018 8.4 310 16 100550 100
2008-08-18 10:08 51°19.23 2°31.755 6.1 301 16 100550 100
2008-08-18 10:09 51°19.347 2°31.492 5.2 303 16 100560 100
2008-08-18 10:10 51°19.462 2°31.223 9.6 304 16.1 100550 100
2008-08-18 10:11 51°19.579 2°30.962 7.2 307 16.1 100560 100
2008-08-18 10:12 51°19.684 2°30.725 7.3 303 16.1 100550 100
2008-08-18 10:13 51°19.793 2°30.497 7.9 302 16.1 100560 100
2008-08-18 10:14 51°19.903 2°30.291 9.7 306 16.1 100570 100
2008-08-18 10:15 51°19.975 2°30.146 8.1 306 16.1 100570 100
2008-08-18 10:16 51°20.01 2°30.049 10.3 303 16.1 100560 100
2008-08-18 10:17 51°20.021 2°29.987 11.7 304 16.1 100550 100
2008-08-18 10:18 51°20.028 2°29.947 13.5 306 16.2 100550 100
2008-08-18 10:19 51°20.032 2°29.915 13.3 308 16.1 100550 100
2008-08-18 10:20 51°20.037 2°29.888 11.1 303 16.2 100530 100
2008-08-18 10:21 51°20.043 2°29.87 10.3 305 16.2 100540 100
2008-08-18 10:22 51°20.046 2°29.831 11.6 305 16.3 100540 100
2008-08-18 10:23 51°20.015 2°29.724 14.1 305 16.3 100520 100
2008-08-18 10:24 51°19.979 2°29.556 7 308 16.3 100510 100
2008-08-18 10:25 51°20.062 2°29.52 8.5 35 16.4 100550 100
2008-08-18 10:26 51°20.137 2°29.684 9.3 21 16.4 100520 100
2008-08-18 10:27 51°20.206 2°29.913 10 21 16.4 100510 100
2008-08-18 10:28 51°20.278 2°30.147 10.5 23 16.4 100510 100
2008-08-18 10:29 51°20.355 2°30.406 9.2 21 16.4 100510 100
2008-08-18 10:30 51°20.436 2°30.681 10.4 20 16.5 100510 100
2008-08-18 10:31 51°20.508 2°30.962 10.9 19 16.5 100520 100
2008-08-18 10:32 51°20.582 2°31.235 9.9 21 16.6 100510 100
2008-08-18 10:33 51°20.655 2°31.509 10.1 22 16.5 100510 99
2008-08-18 10:34 51°20.727 2°31.786 9.1 19 16.6 100510 99
2008-08-18 10:35 51°20.798 2°32.067 10.4 20 16.6 100510 99
2008-08-18 10:36 51°20.87 2°32.346 10.4 23 16.6 100510 99
2008-08-18 10:37 51°20.945 2°32.627 10.5 22 16.6 100520 99
2008-08-18 10:38 51°21.021 2°32.913 10.6 27 16.6 100520 99
2008-08-18 10:39 51°21.097 2°33.185 9.6 17 16.6 100530 99
2008-08-18 10:40 51°21.173 2°33.472 11.3 24 16.6 100520 99
2008-08-18 10:41 51°21.249 2°33.753 12.1 18 16.6 100530 99
2008-08-18 10:42 51°21.328 2°34.041 10.7 24 16.5 100530 99
2008-08-18 10:43 51°21.404 2°34.325 12.3 25 16.6 100530 99
2008-08-18 10:44 51°21.483 2°34.616 9.6 24 16.6 100530 99
2008-08-18 10:45 51°21.559 2°34.896 11.1 24 16.6 100530 99
2008-08-18 10:46 51°21.636 2°35.183 9.7 19 16.6 100530 99
2008-08-18 10:47 51°21.712 2°35.471 10.5 20 16.7 100520 99
2008-08-18 10:48 51°21.789 2°35.754 9.4 18 16.7 100530 99
2008-08-18 10:49 51°21.866 2°36.041 10.2 20 16.7 100530 99
2008-08-18 10:50 51°21.944 2°36.327 9.7 19 16.7 100540 99
2008-08-18 10:51 51°22.023 2°36.611 10.6 18 16.7 100530 99
2008-08-18 10:52 51°22.1 2°36.898 12 21 16.6 100530 99
2008-08-18 10:53 51°22.179 2°37.188 10.5 21 16.7 100530 99
2008-08-18 10:54 51°22.272 2°37.464 6.1 28 16.7 100530 99
2008-08-18 10:55 51°22.437 2°37.595 2.8 52 16.6 100540 99
2008-08-18 10:56 51°22.632 2°37.574 4.9 52 16.7 100550 99
2008-08-18 10:57 51°22.824 2°37.581 3.9 57 16.7 100550 99
2008-08-18 10:58 51°23.023 2°37.607 2.8 56 16.8 100540 99
2008-08-18 10:59 51°23.214 2°37.629 3.2 58 17 100540 100
2008-08-18 11:00 51°23.41 2°37.653 4.8 57 17.2 100550 99
2008-08-18 11:01 51°23.555 2°37.81 11.2 17 17.1 100530 96
2008-08-18 11:02 51°23.61 2°38.115 10.4 19 17 100520 95
2008-08-18 11:03 51°23.666 2°38.424 9.8 20 17 100520 95
2008-08-18 11:04 51°23.708 2°38.735 11.7 10 16.9 100520 96
2008-08-18 11:05 51°23.741 2°39.051 11.7 15 16.9 100520 96
2008-08-18 11:06 51°23.775 2°39.365 10 11 16.9 100520 95
2008-08-18 11:07 51°23.812 2°39.676 10.3 17 16.9 100520 96
2008-08-18 11:08 51°23.869 2°39.98 9 19 16.9 100520 96
2008-08-18 11:09 51°23.944 2°40.277 9.5 24 16.9 100520 96
2008-08-18 11:10 51°24.021 2°40.572 9.1 19 16.9 100520 95
2008-08-18 11:11 51°24.099 2°40.866 9.6 19 16.9 100520 95
2008-08-18 11:12 51°24.177 2°41.167 9 16 16.9 100520 95
2008-08-18 11:13 51°24.252 2°41.455 11.1 20 16.9 100520 98
2008-08-18 11:14 51°24.329 2°41.756 10.4 16 16.9 100520 95
2008-08-18 11:15 51°24.4 2°42.052 9.8 16 16.9 100510 96
2008-08-18 11:16 51°24.477 2°42.357 10.2 19 16.9 100520 98
2008-08-18 11:17 51°24.552 2°42.649 10 14 16.9 100500 98
2008-08-18 11:18 51°24.63 2°42.954 10.2 15 17 100520 98
2008-08-18 11:19 51°24.706 2°43.26 10.1 17 16.9 100510 98
2008-08-18 11:20 51°24.782 2°43.562 10.3 22 16.9 100510 98
2008-08-18 11:21 51°24.86 2°43.865 10.1 17 17 100510 98
2008-08-18 11:22 51°24.937 2°44.16 11.9 19 17 100510 98
2008-08-18 11:23 51°25.015 2°44.461 10.8 14 17 100510 98
2008-08-18 11:24 51°25.093 2°44.762 11.1 17 17 100500 98
2008-08-18 11:25 51°25.172 2°45.065 10.7 19 17.1 100510 98
2008-08-18 11:26 51°25.251 2°45.366 10.1 22 17 100500 97
2008-08-18 11:27 51°25.329 2°45.672 11 19 17 100500 97
2008-08-18 11:28 51°25.411 2°45.98 8.7 13 17.1 100500 97
2008-08-18 11:29 51°25.49 2°46.281 11.8 16 17.1 100500 94
2008-08-18 11:30 51°25.569 2°46.594 9.7 22 17.1 100510 94
2008-08-18 11:31 51°25.649 2°46.895 8.8 20 17.2 100510 94
2008-08-18 11:32 51°25.725 2°47.206 12.1 13 17.1 100510 94
2008-08-18 11:33 51°25.784 2°47.523 10.5 19 17.1 100510 97
2008-08-18 11:34 51°25.839 2°47.84 11 20 17.2 100510 97
2008-08-18 11:35 51°25.883 2°48.085 8.9 24 17.1 100500 97
2008-08-18 11:36 51°25.93 2°48.272 9.2 25 17.1 100510 97
2008-08-18 11:37 51°25.965 2°48.389 12.4 30 17.1 100500 98
2008-08-18 11:38 51°25.981 2°48.462 11.6 23 17.1 100500 97
2008-08-18 11:39 51°25.991 2°48.499 12.5 20 17.1 100500 97
2008-08-18 11:40 51°26.001 2°48.527 10.8 16 17.1 100500 97
2008-08-18 11:41 51°26.011 2°48.552 11.6 13 17.1 100500 98
2008-08-18 11:42 51°26.024 2°48.576 11.9 19 17.1 100500 97
2008-08-18 11:43 51°26.037 2°48.597 12.9 17 17.1 100490 97
2008-08-18 11:44 51°26.051 2°48.624 10.9 22 17.2 100500 98
2008-08-18 11:45 51°26.063 2°48.663 10.4 25 17.2 100500 98
2008-08-18 11:46 51°26.09 2°48.804 10.7 21 17.3 100510 98
2008-08-18 11:47 51°26.138 2°49.071 10.7 9 17.2 100510 98
2008-08-18 11:48 51°26.193 2°49.396 9.6 11 17.2 100500 98
2008-08-18 11:49 51°26.249 2°49.715 10.9 13 17.3 100490 97
2008-08-18 11:50 51°26.303 2°50.048 12.1 13 17.3 100500 98
2008-08-18 11:51 51°26.352 2°50.382 13.1 15 17.3 100490 97
2008-08-18 11:52 51°26.403 2°50.717 11.7 11 17.3 100490 97
2008-08-18 11:53 51°26.452 2°51.051 10.8 13 17.3 100490 97
2008-08-18 11:54 51°26.502 2°51.376 12.6 15 17.3 100500 97
2008-08-18 11:55 51°26.551 2°51.715 13.9 12 17.3 100500 97
2008-08-18 11:56 51°26.598 2°52.052 11.7 14 17.3 100490 97
2008-08-18 11:57 51°26.646 2°52.384 11.1 15 17.3 100500 97
2008-08-18 11:58 51°26.658 2°52.572 11.6 13 17.4 100490 94
2008-08-18 11:59 51°26.662 2°52.67 9.7 16 17.4 100510 95
2008-08-18 12:00 51°26.675 2°52.759 10.4 32 17.4 100520 95
2008-08-18 12:01 51°26.73 2°52.895 8.4 31 17.4 100530 96
2008-08-18 12:02 51°26.798 2°53.107 11 19 17.4 100520 97
2008-08-18 12:03 51°26.856 2°53.401 9.6 12 17.4 100510 97
2008-08-18 12:04 51°26.914 2°53.742 10.1 10 17.4 100510 97
2008-08-18 12:05 51°26.963 2°54.08 10.1 10 17.5 100500 97
2008-08-18 12:06 51°27.015 2°54.43 13.4 12 17.5 100510 97
2008-08-18 12:07 51°27.063 2°54.774 10.8 13 17.5 100520 97
2008-08-18 12:08 51°27.114 2°55.113 11.3 12 17.5 100510 96
2008-08-18 12:09 51°27.166 2°55.463 11.7 16 17.6 100500 97
2008-08-18 12:10 51°27.218 2°55.799 12 18 17.6 100500 96
2008-08-18 12:11 51°27.274 2°56.145 9.2 10 17.6 100510 97
2008-08-18 12:12 51°27.327 2°56.481 11 15 17.7 100520 96
2008-08-18 12:13 51°27.378 2°56.829 10.6 21 17.7 100510 96
2008-08-18 12:14 51°27.429 2°57.126 10.1 31 17.7 100520 96
2008-08-18 12:15 51°27.478 2°57.275 11.5 35 17.7 100530 96
2008-08-18 12:16 51°27.516 2°57.388 10.1 36 17.7 100530 96
2008-08-18 12:17 51°27.556 2°57.494 9.4 34 17.7 100540 96
2008-08-18 12:18 51°27.599 2°57.605 9.9 35 17.7 100540 95
2008-08-18 12:19 51°27.64 2°57.713 11.5 35 17.8 100540 95
2008-08-18 12:20 51°27.681 2°57.824 10.1 31 17.8 100540 95
2008-08-18 12:21 51°27.724 2°57.936 10.7 34 17.7 100530 95
2008-08-18 12:22 51°27.768 2°58.047 8.8 39 17.8 100530 95
2008-08-18 12:23 51°27.812 2°58.158 10.8 35 17.8 100530 95
2008-08-18 12:24 51°27.854 2°58.268 9.6 33 17.7 100530 95
2008-08-18 12:25 51°27.899 2°58.378 10.9 32 17.8 100530 96
2008-08-18 12:26 51°27.925 2°58.431 12 24 17.7 100530 95
2008-08-18 12:27 51°27.948 2°58.466 10.3 25 17.7 100520 95
2008-08-18 12:28 51°27.972 2°58.509 10.9 24 17.7 100530 96
2008-08-18 12:29 51°27.994 2°58.554 10.6 19 17.7 100510 96
2008-08-18 12:30 51°28.017 2°58.603 10.9 15 17.8 100510 96
2008-08-18 12:31 51°28.037 2°58.661 10.8 19 17.7 100500 96
2008-08-18 12:32 51°28.054 2°58.851 12.2 8 17.7 100510 95
2008-08-18 12:33 51°28.068 2°59.175 12.1 8 17.7 100490 96
2008-08-18 12:34 51°28.091 2°59.517 11.4 11 17.7 100480 96
2008-08-18 12:35 51°28.11 2°59.866 8.8 5 17.7 100490 96
2008-08-18 12:36 51°28.122 3°0.222 10.7 4 17.7 100480 96
2008-08-18 12:37 51°28.134 3°0.566 11.7 6 17.7 100490 96
2008-08-18 12:38 51°28.142 3°0.923 9.3 4 17.7 100490 96
2008-08-18 12:39 51°28.145 3°1.268 12.6 8 17.7 100490 96
2008-08-18 12:40 51°28.143 3°1.626 10.7 1 17.7 100480 96
2008-08-18 12:41 51°28.14 3°1.978 11.9 2 17.8 100500 96
2008-08-18 12:42 51°28.123 3°2.328 13.7 358 17.8 100490 95
2008-08-18 12:43 51°28.102 3°2.68 11.9 1 17.8 100480 95
2008-08-18 12:44 51°28.082 3°3.028 10.9 2 17.8 100480 95
2008-08-18 12:45 51°28.074 3°3.367 10.5 12 17.9 100490 95
2008-08-18 12:46 51°28.134 3°3.546 7.5 38 17.9 100510 95
2008-08-18 12:47 51°28.209 3°3.589 5.9 269 18.1 100520 96
2008-08-18 12:48 51°28.289 3°3.553 6.1 266 18.1 100520 95
2008-08-18 12:49 51°28.326 3°3.555 9.8 260 18.1 100520 94
2008-08-18 12:50 51°28.354 3°3.584 10.2 259 18.1 100530 94
2008-08-18 12:51 51°28.382 3°3.623 10.6 258 18.2 100530 94
2008-08-18 12:52 51°28.41 3°3.668 11 304 18.2 100520 94
2008-08-18 12:53 51°28.439 3°3.717 9 307 18.2 100530 94
2008-08-18 12:54 51°28.466 3°3.773 7.1 306 18.2 100530 94
2008-08-18 12:55 51°28.499 3°3.793 12.2 240 18.1 100550 93
2008-08-18 12:56 51°28.484 3°3.769 10.4 336 18.1 100500 94
2008-08-18 12:57 51°28.416 3°3.902 14.1 347 18.2 100500 94
2008-08-18 12:58 51°28.278 3°4.094 14.8 344 18 100490 93
2008-08-18 12:59 51°28.127 3°4.299 16.6 346 18.1 100490 94
2008-08-18 13:00 51°27.979 3°4.518 13.5 343 18 100500 94
2008-08-18 13:01 51°27.829 3°4.734 15.6 344 18 100480 94
2008-08-18 13:02 51°27.68 3°4.953 16.9 344 18 100480 95
2008-08-18 13:03 51°27.531 3°5.169 14.9 346 17.9 100470 95
2008-08-18 13:04 51°27.394 3°5.409 15.8 349 17.9 100470 95
2008-08-18 13:05 51°27.269 3°5.67 13.6 352 17.9 100480 95
2008-08-18 13:06 51°27.151 3°5.942 14 350 17.9 100490 96
2008-08-18 13:07 51°27.03 3°6.21 15.6 352 17.8 100480 96
2008-08-18 13:08 51°26.911 3°6.479 13.9 353 17.8 100490 96
2008-08-18 13:09 51°26.79 3°6.746 16.4 352 17.8 100490 96
2008-08-18 13:10 51°26.671 3°7.014 14.7 351 17.9 100500 96
2008-08-18 13:11 51°26.547 3°7.273 14.7 350 17.9 100500 96
2008-08-18 13:12 51°26.42 3°7.529 14.8 350 17.9 100500 96
2008-08-18 13:13 51°26.293 3°7.784 12.8 352 17.9 100490 96
2008-08-18 13:14 51°26.222 3°7.987 10.7 12 17.8 100510 96
2008-08-18 13:15 51°26.277 3°8.12 6.9 44 17.8 100530 96
2008-08-18 13:16 51°26.369 3°8.218 6.6 43 17.8 100530 97
2008-08-18 13:17 51°26.443 3°8.308 7.4 41 17.8 100530 97
2008-08-18 13:18 51°26.477 3°8.353 4.7 39 17.8 100530 97
2008-08-18 13:19 51°26.496 3°8.392 6.8 34 18 100540 97
2008-08-18 13:20 51°26.521 3°8.43 7.8 37 18 100540 97
2008-08-18 13:21 51°26.548 3°8.464 6.8 52 17.9 100540 96
2008-08-18 13:22 51°26.577 3°8.495 9.7 34 17.9 100530 97
2008-08-18 13:23 51°26.632 3°8.528 9.2 43 17.9 100530 97
2008-08-18 13:24 51°26.667 3°8.649 8.6 4 17.9 100500 96
2008-08-18 13:25 51°26.603 3°8.781 14.3 348 18 100500 97
2008-08-18 13:26 51°26.482 3°9.006 15.3 351 17.9 100480 96
2008-08-18 13:27 51°26.35 3°9.231 16.4 346 17.9 100480 96
2008-08-18 13:28 51°26.213 3°9.448 15.2 345 17.9 100480 96
2008-08-18 13:29 51°26.07 3°9.67 16.5 346 17.9 100490 96
2008-08-18 13:30 51°25.931 3°9.885 13.1 345 17.9 100490 96
2008-08-18 13:31 51°25.786 3°10.102 15 348 17.9 100490 96
2008-08-18 13:32 51°25.645 3°10.312 15.5 344 17.9 100490 96
2008-08-18 13:33 51°25.496 3°10.525 13.4 347 17.9 100500 96
2008-08-18 13:34 51°25.351 3°10.738 14.2 348 17.8 100510 95
2008-08-18 13:35 51°25.206 3°10.953 15.1 348 17.9 100500 95
2008-08-18 13:36 51°25.061 3°11.17 14.3 344 17.9 100510 95
2008-08-18 13:37 51°24.93 3°11.367 13.4 344 17.8 100510 95
2008-08-18 13:38 51°24.867 3°11.473 9.9 340 17.8 100520 94
2008-08-18 13:39 51°24.841 3°11.54 10.5 344 17.8 100520 94
2008-08-18 13:40 51°24.789 3°11.587 13.3 326 17.8 100530 94
2008-08-18 13:41 51°24.652 3°11.565 14.7 328 17.8 100510 94
2008-08-18 13:42 51°24.49 3°11.532 13.9 329 17.8 100510 93
2008-08-18 13:43 51°24.304 3°11.58 13.4 337 17.8 100530 93
2008-08-18 13:44 51°24.127 3°11.736 15.6 342 17.7 100520 92
2008-08-18 13:45 51°23.951 3°11.895 14 338 17.7 100520 91
2008-08-18 13:46 51°23.776 3°12.037 14.7 342 17.7 100530 90
2008-08-18 13:47 51°23.596 3°12.183 14.5 344 17.7 100530 90
2008-08-18 13:48 51°23.42 3°12.32 13.7 344 17.7 100530 89
2008-08-18 13:49 51°23.237 3°12.453 11.7 341 17.7 100540 89
2008-08-18 13:50 51°23.055 3°12.578 13.6 344 17.7 100540 89
2008-08-18 13:51 51°22.87 3°12.704 13.9 346 17.6 100550 89
2008-08-18 13:52 51°22.686 3°12.826 13.7 341 17.5 100540 89
2008-08-18 13:53 51°22.536 3°12.935 8.9 349 17.4 100540 88
2008-08-18 13:54 51°22.496 3°13.086 7.2 38 17.4 100550 88
2008-08-18 13:55 51°22.552 3°13.199 6.7 54 17.5 100580 89
2008-08-18 13:56 51°22.594 3°13.246 5.5 308 17.4 100580 87
2008-08-18 13:57 51°22.617 3°13.297 5.1 307 17.4 100580 87
2008-08-18 13:58 51°22.635 3°13.347 5.9 307 17.4 100570 87
2008-08-18 13:59 51°22.651 3°13.397 5.4 267 17.4 100570 88
2008-08-18 14:00 51°22.668 3°13.443 7.6 303 17.5 100570 88
2008-08-18 14:01 51°22.662 3°13.411 12.3 305 17.4 100550 88
2008-08-18 14:02 51°22.619 3°13.237 11.4 305 17.4 100530 87
2008-08-18 14:03 51°22.582 3°12.99 11.9 317 17.4 100530 86
2008-08-18 14:04 51°22.548 3°12.735 13.8 308 17.5 100530 86
2008-08-18 14:05 51°22.509 3°12.482 14.3 303 17.5 100530 85
2008-08-18 14:06 51°22.471 3°12.229 13 310 17.6 100540 85
2008-08-18 14:07 51°22.433 3°12.003 12.8 308 17.6 100540 85
2008-08-18 14:08 51°22.405 3°11.828 12.3 34 17.6 100540 84
2008-08-18 14:09 51°22.381 3°11.656 11.9 309 17.6 100540 84
2008-08-18 14:10 51°22.359 3°11.484 11.3 302 17.6 100560 84
2008-08-18 14:11 51°22.345 3°11.328 11.9 306 17.6 100560 84
2008-08-18 14:12 51°22.386 3°11.256 8.3 308 17.6 100580 85
2008-08-18 14:13 51°22.418 3°11.202 8.2 301 17.6 100580 85
2008-08-18 14:14 51°22.435 3°11.176 7.2 248 17.6 100570 85
2008-08-18 14:15 51°22.453 3°11.179 10.5 249 17.6 100570 85
2008-08-18 14:16 51°22.472 3°11.194 9.2 304 17.6 100580 85
2008-08-18 14:17 51°22.491 3°11.217 7.9 304 17.5 100580 85
2008-08-18 14:18 51°22.512 3°11.247 8.3 308 17.5 100570 85
2008-08-18 14:19 51°22.531 3°11.28 6 304 17.4 100560 85
2008-08-18 14:20 51°22.549 3°11.316 5.5 303 17.5 100560 87
2008-08-18 14:21 51°22.565 3°11.326 10.1 308 17.5 100560 86
2008-08-18 14:22 51°22.565 3°11.271 9 301 17.4 100550 85
2008-08-18 14:23 51°22.553 3°11.175 9.5 302 17.5 100540 86
2008-08-18 14:24 51°22.524 3°10.973 12.5 37 17.5 100530 86
2008-08-18 14:25 51°22.475 3°10.71 13.5 308 17.5 100520 86
2008-08-18 14:26 51°22.419 3°10.445 13.7 33 17.5 100510 85
2008-08-18 14:27 51°22.358 3°10.183 13.4 307 17.6 100520 85
2008-08-18 14:28 51°22.298 3°9.922 12.2 303 17.6 100520 85
2008-08-18 14:29 51°22.233 3°9.66 13.4 318 17.6 100520 85
2008-08-18 14:30 51°22.148 3°9.413 12.8 300 17.7 100510 84
2008-08-18 14:31 51°22.049 3°9.18 14.3 320 17.8 100530 85
2008-08-18 14:32 51°21.94 3°8.958 14.2 306 17.8 100520 85
2008-08-18 14:33 51°21.826 3°8.745 13.8 323 17.8 100520 84
2008-08-18 14:34 51°21.716 3°8.531 13.1 300 17.9 100520 83
2008-08-18 14:35 51°21.603 3°8.305 14 304 18 100520 83
2008-08-18 14:36 51°21.495 3°8.079 14.2 304 18.1 100530 83
2008-08-18 14:37 51°21.391 3°7.844 13.1 322 18.2 100530 83
2008-08-18 14:38 51°21.279 3°7.618 12.4 302 18.3 100520 81
2008-08-18 14:39 51°21.165 3°7.392 12.8 325 18.3 100530 81
2008-08-18 14:40 51°21.054 3°7.167 13.9 324 18.3 100540 80
2008-08-18 14:41 51°20.945 3°6.944 13.5 304 18.4 100540 80
2008-08-18 14:42 51°20.841 3°6.713 12 324 18.5 100540 81
2008-08-18 14:43 51°20.739 3°6.48 12.1 324 18.5 100550 81
2008-08-18 14:44 51°20.636 3°6.252 11.1 325 18.5 100550 82
2008-08-18 14:45 51°20.525 3°6.033 11.8 303 18.6 100550 82
2008-08-18 14:46 51°20.413 3°5.817 12.9 324 18.6 100540 83
2008-08-18 14:47 51°20.304 3°5.596 13.2 325 18.6 100550 82
2008-08-18 14:48 51°20.199 3°5.365 12.1 326 18.7 100550 83
2008-08-18 14:49 51°20.094 3°5.13 11.8 329 18.7 100560 83
2008-08-18 14:50 51°19.988 3°4.898 12.1 328 18.7 100550 82
2008-08-18 14:51 51°19.875 3°4.673 11.7 330 18.8 100550 82
2008-08-18 14:52 51°19.76 3°4.459 12.6 328 18.8 100540 80
2008-08-18 14:53 51°19.644 3°4.232 11.1 328 18.9 100550 80
2008-08-18 14:54 51°19.53 3°4.008 12.6 305 19 100550 80
2008-08-18 14:55 51°19.419 3°3.783 12.8 328 19 100530 79
2008-08-18 14:56 51°19.312 3°3.552 12.3 325 19 100530 80
2008-08-18 14:57 51°19.208 3°3.313 14.1 307 19 100540 81
2008-08-18 14:58 51°19.101 3°3.081 12.3 324 19 100540 81
2008-08-18 14:59 51°18.991 3°2.848 12.8 327 19 100550 82
2008-08-18 15:00 51°18.881 3°2.616 12.9 324 19 100540 82
2008-08-18 15:01 51°18.77 3°2.385 14.5 328 19.1 100540 82
2008-08-18 15:02 51°18.66 3°2.154 12 302 19.1 100540 81
2008-08-18 15:03 51°18.561 3°1.911 12.1 302 19.2 100540 81
2008-08-18 15:04 51°18.465 3°1.665 12 300 19.2 100530 80
2008-08-18 15:05 51°18.372 3°1.415 10.4 324 19.3 100530 80
2008-08-18 15:06 51°18.286 3°1.158 12.3 301 19.3 100530 80
2008-08-18 15:07 51°18.202 3°0.898 14.2 305 19.4 100530 79
2008-08-18 15:08 51°18.117 3°0.638 12.4 325 19.5 100530 79
2008-08-18 15:09 51°18.029 3°0.379 11.8 324 19.5 100530 80
2008-08-18 15:10 51°17.942 3°0.121 10.4 327 19.5 100520 80
2008-08-18 15:11 51°17.853 2°59.865 10.9 305 19.6 100520 80
2008-08-18 15:12 51°17.764 2°59.609 11.9 328 19.5 100520 78
2008-08-18 15:13 51°17.674 2°59.356 11.2 329 19.6 100520 78
2008-08-18 15:14 51°17.586 2°59.107 11.5 303 19.6 100520 78
2008-08-18 15:15 51°17.498 2°58.858 12.7 329 19.6 100510 77
2008-08-18 15:16 51°17.408 2°58.613 11.5 301 19.7 100520 77
2008-08-18 15:17 51°17.34 2°58.348 12.7 328 19.7 100520 78
2008-08-18 15:18 51°17.272 2°58.082 12.8 328 19.7 100520 78
2008-08-18 15:19 51°17.191 2°57.826 12.5 325 19.7 100520 78
2008-08-18 15:20 51°17.114 2°57.566 13.1 328 19.7 100530 79
2008-08-18 15:21 51°17.036 2°57.306 10.8 328 19.6 100530 79
2008-08-18 15:22 51°16.949 2°57.055 12.7 329 19.7 100520 78
2008-08-18 15:23 51°16.866 2°56.801 11.7 331 19.6 100530 76
2008-08-18 15:24 51°16.791 2°56.541 11.1 328 19.7 100520 75
2008-08-18 15:25 51°16.727 2°56.271 12.1 329 19.7 100520 76
2008-08-18 15:26 51°16.67 2°55.998 11.1 332 19.6 100520 75
2008-08-18 15:27 51°16.608 2°55.726 13 333 19.6 100520 75
2008-08-18 15:28 51°16.54 2°55.458 12.6 332 19.6 100520 75
2008-08-18 15:29 51°16.467 2°55.193 10.8 333 19.6 100530 76
2008-08-18 15:30 51°16.401 2°54.922 12 334 19.5 100530 79
2008-08-18 15:31 51°16.342 2°54.664 10 333 19.5 100530 80
2008-08-18 15:32 51°16.299 2°54.503 7.3 335 19.4 100540 80
2008-08-18 15:33 51°16.276 2°54.425 6 334 19.4 100550 80
2008-08-18 15:34 51°16.271 2°54.378 5.7 330 19.4 100540 80
2008-08-18 15:35 51°16.274 2°54.354 5.6 328 19.4 100550 80
2008-08-18 15:36 51°16.28 2°54.343 5.6 325 19.4 100540 80
2008-08-18 15:37 51°16.29 2°54.343 4.7 301 19.4 100550 80
2008-08-18 15:38 51°16.302 2°54.35 5.3 307 19.4 100550 80
2008-08-18 15:39 51°16.317 2°54.364 5.7 303 19.4 100550 80
2008-08-18 15:40 51°16.332 2°54.383 5.3 306 19.4 100560 81
2008-08-18 15:41 51°16.347 2°54.404 5.2 305 19.4 100560 80
2008-08-18 15:42 51°16.36 2°54.426 5.2 258 19.4 100560 81
2008-08-18 15:43 51°16.374 2°54.45 3.8 300 19.4 100560 80
2008-08-18 15:44 51°16.411 2°54.428 8.5 321 19.3 100560 80
2008-08-18 15:45 51°16.374 2°54.36 8.4 359 19.3 100550 79
2008-08-18 15:46 51°16.22 2°54.38 9.6 351 19.3 100540 78
2008-08-18 15:47 51°16.029 2°54.399 9.3 350 19.2 100540 79
2008-08-18 15:48 51°15.836 2°54.407 8.6 350 19.2 100550 80
2008-08-18 15:49 51°15.642 2°54.426 8 351 19.2 100550 80
2008-08-18 15:50 51°15.451 2°54.461 8.9 351 19.2 100550 81
2008-08-18 15:51 51°15.261 2°54.504 8.4 351 19.1 100550 81
2008-08-18 15:52 51°15.071 2°54.553 8.6 352 19.1 100550 81
2008-08-18 15:53 51°14.887 2°54.646 7.5 354 19.1 100550 80
2008-08-18 15:54 51°14.705 2°54.763 7.6 353 19.2 100560 80
2008-08-18 15:55 51°14.528 2°54.904 6.6 357 19.2 100550 79
2008-08-18 15:56 51°14.364 2°55.08 5.7 359 19.3 100550 79